createdAt,value
2016-10-22T00:00:04.015Z,1008.35
2016-10-22T00:00:14.040Z,1008.38
2016-10-22T00:00:24.003Z,1008.36
2016-10-22T00:00:33.998Z,1008.35
2016-10-22T00:00:43.993Z,1008.34
2016-10-22T00:00:53.990Z,1008.35
2016-10-22T00:01:03.981Z,1008.3
2016-10-22T00:01:13.974Z,1008.36
2016-10-22T00:01:23.969Z,1008.36
2016-10-22T00:01:33.963Z,1008.36
2016-10-22T00:01:43.956Z,1008.36
2016-10-22T00:01:53.951Z,1008.34
2016-10-22T00:02:03.946Z,1008.32
2016-10-22T00:02:13.941Z,1008.35
2016-10-22T00:02:23.935Z,1008.33
2016-10-22T00:02:33.928Z,1008.37
2016-10-22T00:02:44.291Z,1008.36
2016-10-22T00:02:53.918Z,1008.34
2016-10-22T00:03:03.908Z,1008.37
2016-10-22T00:03:13.905Z,1008.4
2016-10-22T00:03:23.899Z,1008.35
2016-10-22T00:03:33.893Z,1008.37
2016-10-22T00:03:43.888Z,1008.37
2016-10-22T00:03:53.884Z,1008.4
2016-10-22T00:04:03.876Z,1008.33
2016-10-22T00:04:13.871Z,1008.37
2016-10-22T00:04:23.865Z,1008.36
2016-10-22T00:04:33.859Z,1008.39
2016-10-22T00:04:43.853Z,1008.4
2016-10-22T00:04:53.853Z,1008.38
2016-10-22T00:05:03.841Z,1008.37
2016-10-22T00:05:13.834Z,1008.35
2016-10-22T00:05:23.830Z,1008.41
2016-10-22T00:05:33.825Z,1008.4
2016-10-22T00:05:43.818Z,1008.38
2016-10-22T00:05:53.814Z,1008.33
2016-10-22T00:06:03.807Z,1008.36
2016-10-22T00:06:13.801Z,1008.44
2016-10-22T00:06:23.795Z,1008.39
2016-10-22T00:06:33.789Z,1008.4
2016-10-22T00:06:43.783Z,1008.36
2016-10-22T00:06:53.778Z,1008.38
2016-10-22T00:07:03.773Z,1008.41
2016-10-22T00:07:13.766Z,1008.36
2016-10-22T00:07:23.761Z,1008.35
2016-10-22T00:07:33.754Z,1008.37
2016-10-22T00:07:43.749Z,1008.38
2016-10-22T00:07:53.743Z,1008.38
2016-10-22T00:08:03.736Z,1008.36
2016-10-22T00:08:13.760Z,1008.39
2016-10-22T00:08:23.725Z,1008.4
2016-10-22T00:08:33.720Z,1008.37
2016-10-22T00:08:43.715Z,1008.4
2016-10-22T00:08:53.708Z,1008.37
2016-10-22T00:09:03.705Z,1008.34
2016-10-22T00:09:13.696Z,1008.37
2016-10-22T00:09:23.690Z,1008.36
2016-10-22T00:09:33.685Z,1008.41
2016-10-22T00:09:43.678Z,1008.35
2016-10-22T00:09:53.674Z,1008.36
2016-10-22T00:10:03.668Z,1008.43
2016-10-22T00:10:13.662Z,1008.35
2016-10-22T00:10:23.656Z,1008.37
2016-10-22T00:10:33.650Z,1008.37
2016-10-22T00:10:43.644Z,1008.39
2016-10-22T00:10:53.639Z,1008.38
2016-10-22T00:11:03.633Z,1008.4
2016-10-22T00:11:13.627Z,1008.38
2016-10-22T00:11:23.622Z,1008.4
2016-10-22T00:11:33.616Z,1008.37
2016-10-22T00:11:43.610Z,1008.36
2016-10-22T00:11:53.606Z,1008.4
2016-10-22T00:12:03.600Z,1008.37
2016-10-22T00:12:13.593Z,1008.37
2016-10-22T00:12:23.586Z,1008.4
2016-10-22T00:12:33.581Z,1008.41
2016-10-22T00:12:43.575Z,1008.39
2016-10-22T00:12:53.569Z,1008.34
2016-10-22T00:13:03.564Z,1008.41
2016-10-22T00:13:13.556Z,1008.39
2016-10-22T00:13:23.552Z,1008.4
2016-10-22T00:13:33.547Z,1008.4
2016-10-22T00:13:43.539Z,1008.39
2016-10-22T00:13:53.535Z,1008.41
2016-10-22T00:14:03.529Z,1008.41
2016-10-22T00:14:13.522Z,1008.38
2016-10-22T00:14:23.517Z,1008.43
2016-10-22T00:14:33.515Z,1008.36
2016-10-22T00:14:43.505Z,1008.41
2016-10-22T00:14:53.501Z,1008.44
2016-10-22T00:15:03.494Z,1008.41
2016-10-22T00:15:13.488Z,1008.4
2016-10-22T00:15:23.483Z,1008.39
2016-10-22T00:15:33.477Z,1008.43
2016-10-22T00:15:43.471Z,1008.44
2016-10-22T00:15:53.465Z,1008.36
2016-10-22T00:16:03.458Z,1008.33
2016-10-22T00:16:13.456Z,1008.42
2016-10-22T00:16:23.454Z,1008.4
2016-10-22T00:16:33.442Z,1008.38
2016-10-22T00:16:43.437Z,1008.39
2016-10-22T00:16:53.431Z,1008.37
2016-10-22T00:17:03.424Z,1008.35
2016-10-22T00:17:13.416Z,1008.42
2016-10-22T00:17:23.413Z,1008.43
2016-10-22T00:17:33.408Z,1008.36
2016-10-22T00:17:43.401Z,1008.39
2016-10-22T00:17:53.397Z,1008.42
2016-10-22T00:18:03.390Z,1008.38
2016-10-22T00:18:13.384Z,1008.38
2016-10-22T00:18:23.379Z,1008.42
2016-10-22T00:18:33.371Z,1008.43
2016-10-22T00:18:43.367Z,1008.39
2016-10-22T00:18:53.360Z,1008.41
2016-10-22T00:19:03.355Z,1008.38
2016-10-22T00:19:13.349Z,1008.43
2016-10-22T00:19:23.504Z,1008.43
2016-10-22T00:19:33.339Z,1008.41
2016-10-22T00:19:43.333Z,1008.35
2016-10-22T00:19:53.333Z,1008.44
2016-10-22T00:20:03.323Z,1008.42
2016-10-22T00:20:13.315Z,1008.38
2016-10-22T00:20:23.310Z,1008.42
2016-10-22T00:20:33.303Z,1008.41
2016-10-22T00:20:43.298Z,1008.38
2016-10-22T00:20:53.291Z,1008.41
2016-10-22T00:21:03.286Z,1008.37
2016-10-22T00:21:13.279Z,1008.4
2016-10-22T00:21:23.276Z,1008.42
2016-10-22T00:21:33.269Z,1008.43
2016-10-22T00:21:43.262Z,1008.44
2016-10-22T00:21:53.257Z,1008.43
2016-10-22T00:22:03.251Z,1008.42
2016-10-22T00:22:13.245Z,1008.41
2016-10-22T00:22:23.242Z,1008.43
2016-10-22T00:22:33.235Z,1008.44
2016-10-22T00:22:43.228Z,1008.39
2016-10-22T00:22:53.225Z,1008.43
2016-10-22T00:23:03.218Z,1008.45
2016-10-22T00:23:13.211Z,1008.44
2016-10-22T00:23:23.205Z,1008.43
2016-10-22T00:23:33.198Z,1008.4
2016-10-22T00:23:43.194Z,1008.39
2016-10-22T00:23:53.188Z,1008.41
2016-10-22T00:24:03.182Z,1008.39
2016-10-22T00:24:13.186Z,1008.39
2016-10-22T00:24:23.170Z,1008.39
2016-10-22T00:24:33.166Z,1008.39
2016-10-22T00:24:43.159Z,1008.35
2016-10-22T00:24:53.488Z,1008.38
2016-10-22T00:25:03.147Z,1008.36
2016-10-22T00:25:13.141Z,1008.43
2016-10-22T00:25:23.135Z,1008.39
2016-10-22T00:25:33.131Z,1008.38
2016-10-22T00:25:43.123Z,1008.39
2016-10-22T00:25:53.119Z,1008.38
2016-10-22T00:26:03.114Z,1008.4
2016-10-22T00:26:13.106Z,1008.4
2016-10-22T00:26:23.113Z,1008.42
2016-10-22T00:26:33.094Z,1008.41
2016-10-22T00:26:43.089Z,1008.38
2016-10-22T00:26:53.083Z,1008.44
2016-10-22T00:27:03.076Z,1008.41
2016-10-22T00:27:13.072Z,1008.42
2016-10-22T00:27:23.066Z,1008.43
2016-10-22T00:27:33.060Z,1008.39
2016-10-22T00:27:43.058Z,1008.39
2016-10-22T00:27:53.047Z,1008.42
2016-10-22T00:28:03.041Z,1008.38
2016-10-22T00:28:13.037Z,1008.38
2016-10-22T00:28:23.031Z,1008.39
2016-10-22T00:28:33.025Z,1008.36
2016-10-22T00:28:43.020Z,1008.38
2016-10-22T00:28:53.013Z,1008.36
2016-10-22T00:29:03.009Z,1008.36
2016-10-22T00:29:13.001Z,1008.35
2016-10-22T00:29:22.996Z,1008.36
2016-10-22T00:29:32.991Z,1008.39
2016-10-22T00:29:42.983Z,1008.38
2016-10-22T00:29:52.978Z,1008.41
2016-10-22T00:30:02.974Z,1008.4
2016-10-22T00:30:12.970Z,1008.42
2016-10-22T00:30:22.962Z,1008.41
2016-10-22T00:30:32.960Z,1008.34
2016-10-22T00:30:42.951Z,1008.34
2016-10-22T00:30:52.944Z,1008.39
2016-10-22T00:31:02.941Z,1008.34
2016-10-22T00:31:12.933Z,1008.39
2016-10-22T00:31:22.929Z,1008.41
2016-10-22T00:31:32.921Z,1008.4
2016-10-22T00:31:42.915Z,1008.36
2016-10-22T00:31:52.909Z,1008.4
2016-10-22T00:32:02.909Z,1008.38
2016-10-22T00:32:12.898Z,1008.37
2016-10-22T00:32:22.892Z,1008.38
2016-10-22T00:32:32.886Z,1008.35
2016-10-22T00:32:42.881Z,1008.37
2016-10-22T00:32:52.874Z,1008.37
2016-10-22T00:33:02.869Z,1008.39
2016-10-22T00:33:12.863Z,1008.38
2016-10-22T00:33:22.857Z,1008.36
2016-10-22T00:33:32.851Z,1008.35
2016-10-22T00:33:42.846Z,1008.41
2016-10-22T00:33:52.841Z,1008.39
2016-10-22T00:34:02.835Z,1008.36
2016-10-22T00:34:12.832Z,1008.43
2016-10-22T00:34:22.823Z,1008.4
2016-10-22T00:34:32.815Z,1008.36
2016-10-22T00:34:42.811Z,1008.38
2016-10-22T00:34:52.804Z,1008.36
2016-10-22T00:35:02.799Z,1008.39
2016-10-22T00:35:12.800Z,1008.39
2016-10-22T00:35:22.787Z,1008.37
2016-10-22T00:35:32.799Z,1008.4
2016-10-22T00:35:42.776Z,1008.4
2016-10-22T00:35:52.770Z,1008.41
2016-10-22T00:36:02.765Z,1008.38
2016-10-22T00:36:12.758Z,1008.4
2016-10-22T00:36:22.754Z,1008.37
2016-10-22T00:36:32.780Z,1008.38
2016-10-22T00:36:42.741Z,1008.42
2016-10-22T00:36:52.735Z,1008.37
2016-10-22T00:37:02.730Z,1008.36
2016-10-22T00:37:12.725Z,1008.43
2016-10-22T00:37:22.718Z,1008.4
2016-10-22T00:37:32.712Z,1008.4
2016-10-22T00:37:42.706Z,1008.37
2016-10-22T00:37:52.700Z,1008.4
2016-10-22T00:38:02.697Z,1008.4
2016-10-22T00:38:12.689Z,1008.35
2016-10-22T00:38:22.684Z,1008.38
2016-10-22T00:38:32.676Z,1008.4
2016-10-22T00:38:42.668Z,1008.34
2016-10-22T00:38:52.667Z,1008.39
2016-10-22T00:39:02.660Z,1008.37
2016-10-22T00:39:12.654Z,1008.33
2016-10-22T00:39:22.649Z,1008.39
2016-10-22T00:39:32.643Z,1008.34
2016-10-22T00:39:42.636Z,1008.39
2016-10-22T00:39:52.634Z,1008.36
2016-10-22T00:40:02.626Z,1008.38
2016-10-22T00:40:12.620Z,1008.37
2016-10-22T00:40:22.613Z,1008.39
2016-10-22T00:40:32.609Z,1008.34
2016-10-22T00:40:42.603Z,1008.34
2016-10-22T00:40:52.595Z,1008.39
2016-10-22T00:41:02.591Z,1008.39
2016-10-22T00:41:12.585Z,1008.41
2016-10-22T00:41:22.579Z,1008.41
2016-10-22T00:41:32.574Z,1008.39
2016-10-22T00:41:42.569Z,1008.4
2016-10-22T00:41:52.561Z,1008.34
2016-10-22T00:42:02.585Z,1008.35
2016-10-22T00:42:12.550Z,1008.35
2016-10-22T00:42:22.544Z,1008.33
2016-10-22T00:42:32.538Z,1008.35
2016-10-22T00:42:42.533Z,1008.33
2016-10-22T00:42:52.527Z,1008.37
2016-10-22T00:43:02.544Z,1008.34
2016-10-22T00:43:12.518Z,1008.37
2016-10-22T00:43:22.510Z,1008.38
2016-10-22T00:43:32.502Z,1008.34
2016-10-22T00:43:42.497Z,1008.35
2016-10-22T00:43:52.491Z,1008.38
2016-10-22T00:44:02.486Z,1008.36
2016-10-22T00:44:12.480Z,1008.31
2016-10-22T00:44:22.475Z,1008.36
2016-10-22T00:44:32.469Z,1008.37
2016-10-22T00:44:42.463Z,1008.33
2016-10-22T00:44:52.457Z,1008.39
2016-10-22T00:45:02.449Z,1008.35
2016-10-22T00:45:12.447Z,1008.38
2016-10-22T00:45:22.440Z,1008.38
2016-10-22T00:45:32.435Z,1008.4
2016-10-22T00:45:42.428Z,1008.39
2016-10-22T00:45:52.422Z,1008.37
2016-10-22T00:46:02.541Z,1008.33
2016-10-22T00:46:12.412Z,1008.33
2016-10-22T00:46:22.404Z,1008.29
2016-10-22T00:46:32.404Z,1008.31
2016-10-22T00:46:42.393Z,1008.38
2016-10-22T00:46:52.388Z,1008.33
2016-10-22T00:47:02.382Z,1008.33
2016-10-22T00:47:12.374Z,1008.33
2016-10-22T00:47:22.395Z,1008.33
2016-10-22T00:47:32.364Z,1008.35
2016-10-22T00:47:42.359Z,1008.32
2016-10-22T00:47:52.352Z,1008.36
2016-10-22T00:48:02.347Z,1008.36
2016-10-22T00:48:12.342Z,1008.34
2016-10-22T00:48:22.335Z,1008.35
2016-10-22T00:48:32.329Z,1008.4
2016-10-22T00:48:42.331Z,1008.31
2016-10-22T00:48:52.318Z,1008.37
2016-10-22T00:49:02.314Z,1008.33
2016-10-22T00:49:12.306Z,1008.31
2016-10-22T00:49:22.300Z,1008.34
2016-10-22T00:49:32.297Z,1008.34
2016-10-22T00:49:42.289Z,1008.28
2016-10-22T00:49:52.283Z,1008.34
2016-10-22T00:50:02.278Z,1008.37
2016-10-22T00:50:12.271Z,1008.31
2016-10-22T00:50:22.265Z,1008.34
2016-10-22T00:50:32.260Z,1008.36
2016-10-22T00:50:42.254Z,1008.38
2016-10-22T00:50:52.249Z,1008.33
2016-10-22T00:51:02.243Z,1008.32
2016-10-22T00:51:12.236Z,1008.34
2016-10-22T00:51:22.231Z,1008.34
2016-10-22T00:51:32.225Z,1008.36
2016-10-22T00:51:42.220Z,1008.37
2016-10-22T00:51:52.213Z,1008.35
2016-10-22T00:52:02.208Z,1008.34
2016-10-22T00:52:12.203Z,1008.33
2016-10-22T00:52:22.197Z,1008.34
2016-10-22T00:52:32.191Z,1008.33
2016-10-22T00:52:42.185Z,1008.37
2016-10-22T00:52:52.179Z,1008.33
2016-10-22T00:53:02.173Z,1008.36
2016-10-22T00:53:12.167Z,1008.32
2016-10-22T00:53:22.162Z,1008.33
2016-10-22T00:53:32.155Z,1008.34
2016-10-22T00:53:42.148Z,1008.33
2016-10-22T00:53:52.143Z,1008.34
2016-10-22T00:54:02.138Z,1008.38
2016-10-22T00:54:12.133Z,1008.38
2016-10-22T00:54:22.125Z,1008.35
2016-10-22T00:54:32.121Z,1008.4
2016-10-22T00:54:42.114Z,1008.39
2016-10-22T00:54:52.107Z,1008.33
2016-10-22T00:55:02.102Z,1008.36
2016-10-22T00:55:12.097Z,1008.3
2016-10-22T00:55:22.090Z,1008.39
2016-10-22T00:55:32.085Z,1008.39
2016-10-22T00:55:42.078Z,1008.37
2016-10-22T00:55:52.073Z,1008.37
2016-10-22T00:56:02.067Z,1008.34
2016-10-22T00:56:12.062Z,1008.38
2016-10-22T00:56:22.056Z,1008.35
2016-10-22T00:56:32.051Z,1008.32
2016-10-22T00:56:42.045Z,1008.3
2016-10-22T00:56:52.040Z,1008.41
2016-10-22T00:57:02.035Z,1008.33
2016-10-22T00:57:12.027Z,1008.34
2016-10-22T00:57:22.021Z,1008.34
2016-10-22T00:57:32.015Z,1008.31
2016-10-22T00:57:42.009Z,1008.36
2016-10-22T00:57:52.004Z,1008.36
2016-10-22T00:58:01.999Z,1008.34
2016-10-22T00:58:11.993Z,1008.32
2016-10-22T00:58:21.986Z,1008.33
2016-10-22T00:58:31.980Z,1008.35
2016-10-22T00:58:41.976Z,1008.32
2016-10-22T00:58:51.968Z,1008.3
2016-10-22T00:59:01.963Z,1008.23
2016-10-22T00:59:11.957Z,1008.28
2016-10-22T00:59:21.952Z,1008.3
2016-10-22T00:59:31.946Z,1008.31
2016-10-22T00:59:41.940Z,1008.3
2016-10-22T00:59:51.934Z,1008.33
2016-10-22T01:00:01.928Z,1008.32
2016-10-22T01:00:11.924Z,1008.32
2016-10-22T01:00:21.916Z,1008.3
2016-10-22T01:00:31.911Z,1008.33
2016-10-22T01:00:41.906Z,1008.29
2016-10-22T01:00:51.900Z,1008.31
2016-10-22T01:01:01.894Z,1008.28
2016-10-22T01:01:11.887Z,1008.32
2016-10-22T01:01:21.882Z,1008.24
2016-10-22T01:01:31.879Z,1008.27
2016-10-22T01:01:41.870Z,1008.32
2016-10-22T01:01:51.864Z,1008.31
2016-10-22T01:02:01.859Z,1008.29
2016-10-22T01:02:11.853Z,1008.29
2016-10-22T01:02:21.847Z,1008.33
2016-10-22T01:02:31.877Z,1008.29
2016-10-22T01:02:41.837Z,1008.28
2016-10-22T01:02:51.832Z,1008.3
2016-10-22T01:03:01.826Z,1008.27
2016-10-22T01:03:11.819Z,1008.31
2016-10-22T01:03:21.813Z,1008.26
2016-10-22T01:03:31.806Z,1008.28
2016-10-22T01:03:41.801Z,1008.32
2016-10-22T01:03:51.795Z,1008.28
2016-10-22T01:04:01.789Z,1008.26
2016-10-22T01:04:11.784Z,1008.31
2016-10-22T01:04:21.779Z,1008.32
2016-10-22T01:04:31.776Z,1008.24
2016-10-22T01:04:41.767Z,1008.28
2016-10-22T01:04:51.762Z,1008.32
2016-10-22T01:05:01.755Z,1008.27
2016-10-22T01:05:11.747Z,1008.25
2016-10-22T01:05:21.743Z,1008.29
2016-10-22T01:05:31.738Z,1008.3
2016-10-22T01:05:41.731Z,1008.26
2016-10-22T01:05:51.726Z,1008.26
2016-10-22T01:06:01.722Z,1008.28
2016-10-22T01:06:11.714Z,1008.33
2016-10-22T01:06:21.709Z,1008.29
2016-10-22T01:06:31.704Z,1008.28
2016-10-22T01:06:41.699Z,1008.33
2016-10-22T01:06:51.691Z,1008.21
2016-10-22T01:07:01.684Z,1008.29
2016-10-22T01:07:11.679Z,1008.33
2016-10-22T01:07:21.674Z,1008.33
2016-10-22T01:07:31.668Z,1008.28
2016-10-22T01:07:41.661Z,1008.29
2016-10-22T01:07:51.656Z,1008.33
2016-10-22T01:08:01.651Z,1008.27
2016-10-22T01:08:11.645Z,1008.3
2016-10-22T01:08:21.640Z,1008.31
2016-10-22T01:08:31.633Z,1008.33
2016-10-22T01:08:41.626Z,1008.27
2016-10-22T01:08:51.621Z,1008.3
2016-10-22T01:09:01.615Z,1008.27
2016-10-22T01:09:11.610Z,1008.26
2016-10-22T01:09:21.604Z,1008.32
2016-10-22T01:09:31.635Z,1008.27
2016-10-22T01:09:41.593Z,1008.32
2016-10-22T01:09:51.587Z,1008.28
2016-10-22T01:10:01.918Z,1008.28
2016-10-22T01:10:11.575Z,1008.35
2016-10-22T01:10:21.570Z,1008.33
2016-10-22T01:10:31.566Z,1008.31
2016-10-22T01:10:41.559Z,1008.28
2016-10-22T01:10:51.552Z,1008.26
2016-10-22T01:11:01.547Z,1008.32
2016-10-22T01:11:11.539Z,1008.29
2016-10-22T01:11:21.535Z,1008.28
2016-10-22T01:11:31.529Z,1008.29
2016-10-22T01:11:41.523Z,1008.31
2016-10-22T01:11:51.517Z,1008.35
2016-10-22T01:12:01.511Z,1008.29
2016-10-22T01:12:11.505Z,1008.29
2016-10-22T01:12:21.500Z,1008.33
2016-10-22T01:12:31.497Z,1008.35
2016-10-22T01:12:41.490Z,1008.29
2016-10-22T01:12:51.483Z,1008.32
2016-10-22T01:13:01.477Z,1008.31
2016-10-22T01:13:11.470Z,1008.27
2016-10-22T01:13:21.465Z,1008.26
2016-10-22T01:13:31.492Z,1008.26
2016-10-22T01:13:41.453Z,1008.32
2016-10-22T01:13:51.448Z,1008.27
2016-10-22T01:14:01.444Z,1008.27
2016-10-22T01:14:11.436Z,1008.26
2016-10-22T01:14:21.431Z,1008.27
2016-10-22T01:14:31.423Z,1008.23
2016-10-22T01:14:41.419Z,1008.33
2016-10-22T01:14:51.413Z,1008.24
2016-10-22T01:15:01.407Z,1008.25
2016-10-22T01:15:11.401Z,1008.25
2016-10-22T01:15:21.396Z,1008.27
2016-10-22T01:15:31.390Z,1008.26
2016-10-22T01:15:41.386Z,1008.29
2016-10-22T01:15:51.406Z,1008.28
2016-10-22T01:16:01.373Z,1008.29
2016-10-22T01:16:11.367Z,1008.29
2016-10-22T01:16:21.361Z,1008.3
2016-10-22T01:16:31.384Z,1008.26
2016-10-22T01:16:41.350Z,1008.32
2016-10-22T01:16:51.677Z,1008.27
2016-10-22T01:17:01.338Z,1008.3
2016-10-22T01:17:11.333Z,1008.28
2016-10-22T01:17:21.326Z,1008.29
2016-10-22T01:17:31.321Z,1008.3
2016-10-22T01:17:41.314Z,1008.32
2016-10-22T01:17:51.308Z,1008.35
2016-10-22T01:18:01.304Z,1008.29
2016-10-22T01:18:11.297Z,1008.27
2016-10-22T01:18:21.292Z,1008.3
2016-10-22T01:18:31.285Z,1008.3
2016-10-22T01:18:41.280Z,1008.28
2016-10-22T01:18:51.276Z,1008.32
2016-10-22T01:19:01.271Z,1008.3
2016-10-22T01:19:11.264Z,1008.31
2016-10-22T01:19:21.257Z,1008.27
2016-10-22T01:19:31.251Z,1008.34
2016-10-22T01:19:41.247Z,1008.29
2016-10-22T01:19:51.238Z,1008.29
2016-10-22T01:20:01.235Z,1008.29
2016-10-22T01:20:11.231Z,1008.27
2016-10-22T01:20:21.224Z,1008.31
2016-10-22T01:20:31.218Z,1008.26
2016-10-22T01:20:41.212Z,1008.32
2016-10-22T01:20:51.206Z,1008.33
2016-10-22T01:21:01.201Z,1008.31
2016-10-22T01:21:11.193Z,1008.27
2016-10-22T01:21:21.186Z,1008.31
2016-10-22T01:21:31.182Z,1008.26
2016-10-22T01:21:41.177Z,1008.27
2016-10-22T01:21:51.172Z,1008.29
2016-10-22T01:22:01.166Z,1008.26
2016-10-22T01:22:11.159Z,1008.29
2016-10-22T01:22:21.155Z,1008.25
2016-10-22T01:22:31.147Z,1008.28
2016-10-22T01:22:41.144Z,1008.24
2016-10-22T01:22:51.136Z,1008.29
2016-10-22T01:23:01.132Z,1008.27
2016-10-22T01:23:11.125Z,1008.28
2016-10-22T01:23:21.119Z,1008.27
2016-10-22T01:23:31.113Z,1008.28
2016-10-22T01:23:41.107Z,1008.29
2016-10-22T01:23:51.103Z,1008.29
2016-10-22T01:24:01.095Z,1008.27
2016-10-22T01:24:11.088Z,1008.27
2016-10-22T01:24:21.085Z,1008.26
2016-10-22T01:24:31.078Z,1008.27
2016-10-22T01:24:41.072Z,1008.27
2016-10-22T01:24:51.065Z,1008.29
2016-10-22T01:25:01.087Z,1008.28
2016-10-22T01:25:11.055Z,1008.25
2016-10-22T01:25:21.051Z,1008.26
2016-10-22T01:25:31.045Z,1008.26
2016-10-22T01:25:41.037Z,1008.26
2016-10-22T01:25:51.031Z,1008.28
2016-10-22T01:26:01.026Z,1008.27
2016-10-22T01:26:11.019Z,1008.25
2016-10-22T01:26:21.015Z,1008.27
2016-10-22T01:26:31.008Z,1008.3
2016-10-22T01:26:41.002Z,1008.22
2016-10-22T01:26:50.997Z,1008.22
2016-10-22T01:27:00.989Z,1008.25
2016-10-22T01:27:10.985Z,1008.27
2016-10-22T01:27:20.979Z,1008.27
2016-10-22T01:27:31.016Z,1008.3
2016-10-22T01:27:40.968Z,1008.26
2016-10-22T01:27:50.961Z,1008.22
2016-10-22T01:28:00.956Z,1008.27
2016-10-22T01:28:10.950Z,1008.25
2016-10-22T01:28:20.944Z,1008.26
2016-10-22T01:28:30.939Z,1008.25
2016-10-22T01:28:40.933Z,1008.22
2016-10-22T01:28:50.927Z,1008.24
2016-10-22T01:29:00.921Z,1008.25
2016-10-22T01:29:10.915Z,1008.3
2016-10-22T01:29:20.944Z,1008.31
2016-10-22T01:29:30.906Z,1008.24
2016-10-22T01:29:40.898Z,1008.24
2016-10-22T01:29:50.894Z,1008.23
2016-10-22T01:30:00.918Z,1008.26
2016-10-22T01:30:10.880Z,1008.26
2016-10-22T01:30:20.875Z,1008.24
2016-10-22T01:30:30.869Z,1008.23
2016-10-22T01:30:40.863Z,1008.27
2016-10-22T01:30:50.887Z,1008.22
2016-10-22T01:31:00.854Z,1008.23
2016-10-22T01:31:10.847Z,1008.23
2016-10-22T01:31:20.842Z,1008.28
2016-10-22T01:31:30.834Z,1008.23
2016-10-22T01:31:40.828Z,1008.25
2016-10-22T01:31:50.821Z,1008.28
2016-10-22T01:32:00.817Z,1008.24
2016-10-22T01:32:10.811Z,1008.23
2016-10-22T01:32:20.804Z,1008.25
2016-10-22T01:32:30.803Z,1008.22
2016-10-22T01:32:40.794Z,1008.23
2016-10-22T01:32:50.788Z,1008.23
2016-10-22T01:33:00.784Z,1008.22
2016-10-22T01:33:10.776Z,1008.2
2016-10-22T01:33:20.770Z,1008.23
2016-10-22T01:33:30.794Z,1008.2
2016-10-22T01:33:40.759Z,1008.22
2016-10-22T01:33:50.753Z,1008.18
2016-10-22T01:34:00.770Z,1008.23
2016-10-22T01:34:10.741Z,1008.21
2016-10-22T01:34:20.736Z,1008.24
2016-10-22T01:34:30.731Z,1008.24
2016-10-22T01:34:40.724Z,1008.22
2016-10-22T01:34:50.718Z,1008.2
2016-10-22T01:35:00.712Z,1008.2
2016-10-22T01:35:10.706Z,1008.16
2016-10-22T01:35:20.702Z,1008.19
2016-10-22T01:35:30.694Z,1008.2
2016-10-22T01:35:40.690Z,1008.17
2016-10-22T01:35:50.683Z,1008.16
2016-10-22T01:36:00.678Z,1008.23
2016-10-22T01:36:10.672Z,1008.2
2016-10-22T01:36:20.664Z,1008.21
2016-10-22T01:36:30.661Z,1008.19
2016-10-22T01:36:40.655Z,1008.19
2016-10-22T01:36:50.648Z,1008.2
2016-10-22T01:37:00.672Z,1008.19
2016-10-22T01:37:10.637Z,1008.21
2016-10-22T01:37:20.631Z,1008.19
2016-10-22T01:37:30.625Z,1008.18
2016-10-22T01:37:40.618Z,1008.24
2016-10-22T01:37:50.612Z,1008.2
2016-10-22T01:38:00.608Z,1008.24
2016-10-22T01:38:10.602Z,1008.2
2016-10-22T01:38:20.596Z,1008.21
2016-10-22T01:38:30.589Z,1008.22
2016-10-22T01:38:40.584Z,1008.19
2016-10-22T01:38:50.579Z,1008.16
2016-10-22T01:39:00.574Z,1008.2
2016-10-22T01:39:10.568Z,1008.18
2016-10-22T01:39:20.591Z,1008.23
2016-10-22T01:39:30.554Z,1008.16
2016-10-22T01:39:40.550Z,1008.17
2016-10-22T01:39:50.543Z,1008.15
2016-10-22T01:40:00.538Z,1008.17
2016-10-22T01:40:10.533Z,1008.22
2016-10-22T01:40:20.527Z,1008.13
2016-10-22T01:40:30.521Z,1008.13
2016-10-22T01:40:40.516Z,1008.19
2016-10-22T01:40:50.509Z,1008.18
2016-10-22T01:41:00.504Z,1008.14
2016-10-22T01:41:10.497Z,1008.13
2016-10-22T01:41:20.491Z,1008.18
2016-10-22T01:41:30.485Z,1008.16
2016-10-22T01:41:40.480Z,1008.15
2016-10-22T01:41:50.480Z,1008.2
2016-10-22T01:42:00.471Z,1008.13
2016-10-22T01:42:10.462Z,1008.14
2016-10-22T01:42:20.458Z,1008.16
2016-10-22T01:42:30.451Z,1008.18
2016-10-22T01:42:40.445Z,1008.14
2016-10-22T01:42:50.441Z,1008.18
2016-10-22T01:43:00.434Z,1008.2
2016-10-22T01:43:10.766Z,1008.18
2016-10-22T01:43:20.424Z,1008.18
2016-10-22T01:43:30.447Z,1008.2
2016-10-22T01:43:40.411Z,1008.18
2016-10-22T01:43:50.406Z,1008.17
2016-10-22T01:44:00.397Z,1008.13
2016-10-22T01:44:10.392Z,1008.2
2016-10-22T01:44:20.387Z,1008.21
2016-10-22T01:44:30.382Z,1008.17
2016-10-22T01:44:40.376Z,1008.2
2016-10-22T01:44:50.370Z,1008.16
2016-10-22T01:45:00.364Z,1008.2
2016-10-22T01:45:10.359Z,1008.18
2016-10-22T01:45:20.353Z,1008.17
2016-10-22T01:45:30.347Z,1008.16
2016-10-22T01:45:40.340Z,1008.19
2016-10-22T01:45:50.334Z,1008.17
2016-10-22T01:46:00.329Z,1008.17
2016-10-22T01:46:10.323Z,1008.19
2016-10-22T01:46:20.318Z,1008.2
2016-10-22T01:46:30.312Z,1008.15
2016-10-22T01:46:40.306Z,1008.12
2016-10-22T01:46:50.302Z,1008.2
2016-10-22T01:47:00.295Z,1008.17
2016-10-22T01:47:10.289Z,1008.2
2016-10-22T01:47:20.283Z,1008.19
2016-10-22T01:47:30.277Z,1008.19
2016-10-22T01:47:40.271Z,1008.2
2016-10-22T01:47:50.265Z,1008.17
2016-10-22T01:48:00.260Z,1008.2
2016-10-22T01:48:10.253Z,1008.2
2016-10-22T01:48:20.247Z,1008.22
2016-10-22T01:48:30.241Z,1008.18
2016-10-22T01:48:40.237Z,1008.2
2016-10-22T01:48:50.230Z,1008.28
2016-10-22T01:49:00.225Z,1008.22
2016-10-22T01:49:10.217Z,1008.21
2016-10-22T01:49:20.213Z,1008.24
2016-10-22T01:49:30.207Z,1008.2
2016-10-22T01:49:40.201Z,1008.18
2016-10-22T01:49:50.196Z,1008.21
2016-10-22T01:50:00.190Z,1008.19
2016-10-22T01:50:10.184Z,1008.21
2016-10-22T01:50:20.178Z,1008.23
2016-10-22T01:50:30.172Z,1008.22
2016-10-22T01:50:40.167Z,1008.24
2016-10-22T01:50:50.161Z,1008.21
2016-10-22T01:51:00.156Z,1008.23
2016-10-22T01:51:10.149Z,1008.2
2016-10-22T01:51:20.143Z,1008.24
2016-10-22T01:51:30.139Z,1008.17
2016-10-22T01:51:40.132Z,1008.21
2016-10-22T01:51:50.124Z,1008.23
2016-10-22T01:52:00.120Z,1008.24
2016-10-22T01:52:10.113Z,1008.23
2016-10-22T01:52:20.108Z,1008.22
2016-10-22T01:52:30.104Z,1008.21
2016-10-22T01:52:40.100Z,1008.22
2016-10-22T01:52:50.092Z,1008.23
2016-10-22T01:53:00.114Z,1008.2
2016-10-22T01:53:10.081Z,1008.21
2016-10-22T01:53:20.074Z,1008.2
2016-10-22T01:53:30.068Z,1008.23
2016-10-22T01:53:40.062Z,1008.18
2016-10-22T01:53:50.055Z,1008.22
2016-10-22T01:54:00.052Z,1008.19
2016-10-22T01:54:10.046Z,1008.16
2016-10-22T01:54:20.041Z,1008.17
2016-10-22T01:54:30.033Z,1008.24
2016-10-22T01:54:40.027Z,1008.18
2016-10-22T01:54:50.021Z,1008.25
2016-10-22T01:55:00.015Z,1008.19
2016-10-22T01:55:10.010Z,1008.21
2016-10-22T01:55:20.004Z,1008.24
2016-10-22T01:55:29.997Z,1008.22
2016-10-22T01:55:39.994Z,1008.17
2016-10-22T01:55:49.987Z,1008.19
2016-10-22T01:55:59.982Z,1008.27
2016-10-22T01:56:09.975Z,1008.19
2016-10-22T01:56:19.969Z,1008.24
2016-10-22T01:56:29.964Z,1008.21
2016-10-22T01:56:39.958Z,1008.24
2016-10-22T01:56:49.952Z,1008.23
2016-10-22T01:56:59.946Z,1008.24
2016-10-22T01:57:09.940Z,1008.26
2016-10-22T01:57:19.935Z,1008.22
2016-10-22T01:57:29.930Z,1008.21
2016-10-22T01:57:39.924Z,1008.18
2016-10-22T01:57:49.917Z,1008.19
2016-10-22T01:57:59.912Z,1008.19
2016-10-22T01:58:09.904Z,1008.23
2016-10-22T01:58:19.900Z,1008.23
2016-10-22T01:58:29.893Z,1008.18
2016-10-22T01:58:39.887Z,1008.3
2016-10-22T01:58:49.881Z,1008.25
2016-10-22T01:58:59.875Z,1008.24
2016-10-22T01:59:09.894Z,1008.29
2016-10-22T01:59:19.866Z,1008.23
2016-10-22T01:59:29.859Z,1008.23
2016-10-22T01:59:39.854Z,1008.23
2016-10-22T01:59:49.847Z,1008.27
2016-10-22T01:59:59.841Z,1008.22
2016-10-22T02:00:09.837Z,1008.22
2016-10-22T02:00:19.830Z,1008.2
2016-10-22T02:00:29.825Z,1008.23
2016-10-22T02:00:39.852Z,1008.2
2016-10-22T02:00:49.813Z,1008.19
2016-10-22T02:00:59.807Z,1008.21
2016-10-22T02:01:09.826Z,1008.21
2016-10-22T02:01:19.794Z,1008.19